Time;durP1;ratioP1;P1;durP2;ratioP2;P2;SDS_P1;SDS_P2;PMS_P1;PMS_P2;Temp;Humidity;BMP_temperature;BMP_pressure;BME280_temperature;BME280_humidity;BME280_pressure;Samples;Min_cycle;Max_cycle;Signal;HPM_P1;HPM_P2
2021/07/11 00:01:45;;;;;;;10.40;7.85;;;17.30;88.90;;;;;;5062098;28;20132;-85
2021/07/11 00:04:11;;;;;;;17.85;14.13;;;17.30;88.10;;;;;;5067828;28;20064;-84
2021/07/11 00:06:37;;;;;;;10.32;8.10;;;17.30;89.50;;;;;;5069347;28;20077;-85
2021/07/11 00:09:06;;;;;;;13.13;11.40;;;17.30;90.50;;;;;;5084093;28;20400;-84
2021/07/11 00:11:32;;;;;;;13.27;10.77;;;17.40;90.20;;;;;;5062636;28;20035;-84
2021/07/11 00:14:01;;;;;;;12.10;10.82;;;17.30;88.90;;;;;;5069701;28;20024;-83
2021/07/11 00:16:27;;;;;;;12.52;9.82;;;17.30;90.20;;;;;;5057428;28;20088;-84
2021/07/11 00:18:53;;;;;;;12.63;11.23;;;17.30;89.00;;;;;;5057246;28;20086;-84
2021/07/11 00:21:19;;;;;;;11.35;10.20;;;17.30;87.50;;;;;;5057238;28;20619;-84
2021/07/11 00:23:44;;;;;;;13.15;10.57;;;17.30;89.10;;;;;;5057892;28;20048;-84
2021/07/11 00:26:10;;;;;;;14.13;12.07;;;17.30;90.50;;;;;;5058128;28;20089;-83
2021/07/11 00:28:36;;;;;;;8.65;6.40;;;17.20;89.60;;;;;;5071672;28;20107;-84
2021/07/11 00:31:01;;;;;;;14.35;8.75;;;17.30;90.40;;;;;;5058337;28;20031;-84
2021/07/11 00:33:27;;;;;;;10.25;8.98;;;17.30;89.30;;;;;;5071512;28;20028;-84
2021/07/11 00:35:52;;;;;;;10.82;9.20;;;17.20;89.80;;;;;;5055331;27;20145;-83
2021/07/11 00:38:18;;;;;;;20.17;11.38;;;17.20;90.10;;;;;;5054860;28;20170;-84
2021/07/11 00:40:43;;;;;;;12.60;10.43;;;17.20;89.20;;;;;;5086954;28;20140;-84
2021/07/11 00:43:10;;;;;;;11.80;10.48;;;17.10;88.30;;;;;;5070736;28;20024;-84
2021/07/11 00:45:35;;;;;;;10.25;8.65;;;17.20;90.30;;;;;;5067057;28;20051;-84
2021/07/11 00:48:04;;;;;;;12.07;10.32;;;17.10;90.50;;;;;;5087369;28;20028;-84
2021/07/11 00:50:30;;;;;;;14.45;12.88;;;17.10;89.60;;;;;;5064237;28;20107;-84
2021/07/11 00:52:55;;;;;;;10.00;8.52;;;17.00;87.60;;;;;;5069609;28;20035;-83
2021/07/11 00:55:23;;;;;;;10.18;9.15;;;17.00;89.70;;;;;;5054070;28;20028;-84
2021/07/11 00:57:51;;;;;;;10.75;8.15;;;17.20;91.10;;;;;;5072168;28;20021;-83
2021/07/11 01:00:17;;;;;;;6.68;6.00;;;17.20;90.50;;;;;;5071133;28;20441;-84
2021/07/11 01:02:50;;;;;;;8.13;6.70;;;17.30;90.90;;;;;;5072435;28;20035;-84
2021/07/11 01:05:15;;;;;;;8.82;6.90;;;17.30;91.00;;;;;;5065915;28;20028;-83
2021/07/11 01:07:56;;;;;;;14.73;10.98;;;17.50;91.90;;;;;;5069689;28;20046;-83
2021/07/11 01:10:32;;;;;;;10.18;8.00;;;17.40;91.60;;;;;;5085006;28;20115;-83
2021/07/11 01:12:57;;;;;;;;;;;17.50;91.40;;;;;;5087888;28;20751;-84
2021/07/11 01:15:23;;;;;;;10.17;6.73;;;17.40;92.20;;;;;;5067088;28;19916;-83
2021/07/11 01:17:54;;;;;;;10.20;7.88;;;17.60;91.90;;;;;;5053835;28;20116;-83
2021/07/11 01:20:45;;;;;;;9.50;8.38;;;17.50;91.70;;;;;;5056828;28;20427;-83
2021/07/11 01:23:14;;;;;;;12.60;10.95;;;17.60;92.00;;;;;;5085706;28;20111;-83
2021/07/11 01:25:47;;;;;;;10.27;8.55;;;17.50;91.90;;;;;;5069913;28;20040;-83
2021/07/11 01:28:17;;;;;;;10.98;8.48;;;17.30;91.70;;;;;;5081138;28;20035;-83
2021/07/11 01:30:43;;;;;;;7.30;6.28;;;17.30;92.90;;;;;;5072208;28;20515;-83
2021/07/11 01:33:09;;;;;;;10.30;8.75;;;17.30;92.50;;;;;;5087263;28;20035;-83
2021/07/11 01:35:35;;;;;;;8.27;6.85;;;17.30;92.50;;;;;;5065856;28;20028;-83
2021/07/11 01:38:01;;;;;;;9.40;7.70;;;17.20;91.90;;;;;;5087194;28;20551;-84
2021/07/11 01:40:27;;;;;;;11.85;10.10;;;17.10;91.60;;;;;;5045165;28;20119;-84
2021/07/11 01:42:53;;;;;;;9.60;8.07;;;17.10;91.70;;;;;;5089322;28;20112;-83
2021/07/11 01:45:18;;;;;;;7.57;5.95;;;17.10;92.20;;;;;;5069648;28;20070;-83
2021/07/11 01:47:44;;;;;;;9.30;7.13;;;17.10;92.70;;;;;;5086511;28;20035;-83
2021/07/11 01:50:10;;;;;;;7.20;6.25;;;17.10;92.10;;;;;;5071864;28;20028;-84
2021/07/11 01:52:36;;;;;;;7.53;5.78;;;17.30;92.90;;;;;;5053874;28;20027;-83
2021/07/11 01:55:02;;;;;;;7.55;6.03;;;17.30;92.00;;;;;;5070216;28;20511;-83
2021/07/11 01:57:28;;;;;;;9.75;6.85;;;17.40;91.80;;;;;;5084592;28;20040;-83
2021/07/11 01:59:53;;;;;;;9.95;6.93;;;17.40;92.20;;;;;;5070296;28;20038;-83
2021/07/11 02:02:19;;;;;;;10.93;8.13;;;17.30;92.30;;;;;;5086146;28;20039;-83
2021/07/11 02:04:44;;;;;;;13.77;10.50;;;17.30;92.40;;;;;;5050572;28;20541;-83
2021/07/11 02:07:10;;;;;;;12.45;9.45;;;17.30;92.20;;;;;;5073246;28;20032;-83
2021/07/11 02:09:35;;;;;;;12.23;9.43;;;17.10;92.00;;;;;;5068127;28;20131;-83
2021/07/11 02:12:02;;;;;;;13.07;8.93;;;17.00;92.10;;;;;;5069629;28;20105;-83
2021/07/11 02:14:29;;;;;;;11.30;7.45;;;17.00;92.20;;;;;;5084071;28;20032;-83
2021/07/11 02:16:59;;;;;;;16.42;12.13;;;17.00;92.40;;;;;;5066943;28;20036;-83
2021/07/11 02:19:25;;;;;;;15.70;11.13;;;17.00;92.00;;;;;;5052080;28;20032;-83
2021/07/11 02:21:50;;;;;;;8.20;6.53;;;16.90;91.80;;;;;;5067570;28;20384;-83
2021/07/11 02:24:16;;;;;;;10.50;7.53;;;17.00;92.00;;;;;;5068308;28;20036;-83
2021/07/11 02:26:41;;;;;;;26.13;12.13;;;16.90;91.90;;;;;;5088114;28;20088;-83
2021/07/11 02:29:07;;;;;;;15.00;10.73;;;17.00;91.70;;;;;;5086367;28;20074;-83
2021/07/11 02:31:35;;;;;;;10.60;7.63;;;17.00;91.70;;;;;;5068620;28;20028;-83
2021/07/11 02:34:01;;;;;;;10.85;6.78;;;16.90;91.90;;;;;;5067981;28;20028;-83
2021/07/11 02:36:28;;;;;;;20.35;10.35;;;16.90;91.40;;;;;;5061727;28;20481;-83
2021/07/11 02:39:14;;;;;;;14.45;9.52;;;17.10;92.30;;;;;;5061355;28;20102;-83
2021/07/11 02:41:58;;;;;;;10.53;6.47;;;17.10;92.10;;;;;;5065698;27;20024;-82
2021/07/11 02:44:24;;;;;;;9.45;6.78;;;17.20;92.20;;;;;;5050588;28;20024;-83
2021/07/11 02:46:53;;;;;;;9.70;7.13;;;17.20;92.50;;;;;;5084123;28;20031;-83
2021/07/11 02:49:19;;;;;;;11.02;7.63;;;17.30;92.60;;;;;;5066791;28;20034;-83
2021/07/11 02:51:50;;;;;;;11.85;9.65;;;17.30;92.50;;;;;;5051725;28;20115;-83
2021/07/11 02:54:18;;;;;;;8.88;6.78;;;17.30;93.20;;;;;;5048432;28;20035;-83
2021/07/11 02:56:44;;;;;;;11.07;7.72;;;17.30;92.70;;;;;;5047709;28;20082;-83
2021/07/11 02:59:10;;;;;;;14.30;10.80;;;17.30;92.50;;;;;;5068008;28;20058;-82
2021/07/11 03:01:36;;;;;;;13.55;10.25;;;17.40;92.70;;;;;;5048015;28;20036;-83
2021/07/11 03:04:02;;;;;;;14.90;9.77;;;17.40;92.80;;;;;;5065997;28;20095;-83
2021/07/11 03:06:32;;;;;;;14.80;9.88;;;17.20;93.50;;;;;;5053144;28;20032;-82
2021/07/11 03:08:57;;;;;;;11.80;8.90;;;17.20;93.00;;;;;;5068796;28;20036;-83
2021/07/11 03:11:24;;;;;;;16.45;13.23;;;17.20;92.80;;;;;;5072963;28;20028;-82
2021/07/11 03:13:50;;;;;;;14.40;9.60;;;17.30;93.70;;;;;;5067490;28;20495;-83
2021/07/11 03:16:15;;;;;;;18.90;15.07;;;17.10;93.10;;;;;;5083978;28;20028;-82
2021/07/11 03:18:41;;;;;;;13.25;9.70;;;17.20;93.90;;;;;;5050999;28;20085;-83
2021/07/11 03:21:07;;;;;;;14.57;10.27;;;16.90;93.20;;;;;;5054700;28;20057;-83
2021/07/11 03:23:33;;;;;;;15.65;12.00;;;17.10;93.80;;;;;;5069489;28;20514;-82
2021/07/11 03:25:59;;;;;;;14.43;10.30;;;17.10;94.50;;;;;;5061061;28;20063;-82
2021/07/11 03:28:24;;;;;;;22.05;15.77;;;17.00;93.80;;;;;;5065990;28;20058;-82
2021/07/11 03:30:51;;;;;;;13.32;10.35;;;16.90;93.40;;;;;;5070326;28;20544;-82
2021/07/11 03:33:17;;;;;;;14.52;11.45;;;16.80;93.50;;;;;;5063291;28;20029;-82
2021/07/11 03:35:45;;;;;;;25.60;17.98;;;16.80;94.10;;;;;;5048379;28;20553;-82
2021/07/11 03:38:14;;;;;;;19.48;11.38;;;16.90;93.20;;;;;;5083776;28;20020;-82
2021/07/11 03:40:41;;;;;;;24.00;16.98;;;16.90;94.10;;;;;;5050818;28;20056;-82
2021/07/11 03:43:08;;;;;;;26.90;19.13;;;16.70;93.20;;;;;;5085020;28;20062;-82
2021/07/11 03:45:34;;;;;;;17.23;13.25;;;16.60;93.30;;;;;;5082873;28;20042;-83
2021/07/11 03:48:08;;;;;;;25.20;19.25;;;16.60;93.40;;;;;;5067794;28;20062;-83
2021/07/11 03:50:35;;;;;;;14.15;10.25;;;16.60;93.70;;;;;;5052894;28;20492;-83
2021/07/11 03:53:04;;;;;;;18.65;11.98;;;16.60;93.90;;;;;;5073759;28;20127;-83
2021/07/11 03:55:30;;;;;;;14.10;11.85;;;16.70;94.20;;;;;;5054684;27;20036;-83
2021/07/11 03:57:55;;;;;;;22.05;14.65;;;16.60;94.40;;;;;;5072533;28;20027;-83
2021/07/11 04:00:21;;;;;;;19.50;12.20;;;16.60;93.50;;;;;;5071372;28;20127;-82
2021/07/11 04:02:49;;;;;;;21.67;13.93;;;16.50;93.50;;;;;;5052872;28;20020;-82
2021/07/11 04:05:20;;;;;;;23.40;17.58;;;16.50;93.50;;;;;;5070974;28;20101;-82
2021/07/11 04:07:45;;;;;;;36.25;22.60;;;16.40;94.00;;;;;;5055902;28;20590;-82
2021/07/11 04:10:11;;;;;;;20.30;16.02;;;16.30;93.60;;;;;;5074619;28;20038;-81
2021/07/11 04:12:37;;;;;;;23.42;17.52;;;16.40;93.50;;;;;;5071900;28;20123;-82
2021/07/11 04:15:03;;;;;;;20.90;14.98;;;16.50;94.30;;;;;;5069516;28;20111;-82
2021/07/11 04:17:28;;;;;;;16.55;13.48;;;16.50;93.80;;;;;;5071890;28;20052;-82
2021/07/11 04:19:56;;;;;;;15.02;12.13;;;16.50;93.50;;;;;;5069999;28;20063;-82
2021/07/11 04:22:21;;;;;;;24.63;18.83;;;16.70;93.30;;;;;;5076265;28;20038;-82
2021/07/11 04:24:47;;;;;;;15.13;10.80;;;16.60;94.10;;;;;;5091854;28;20040;-82
2021/07/11 04:27:12;;;;;;;24.60;17.83;;;16.60;93.80;;;;;;5053411;28;20480;-82
2021/07/11 04:29:38;;;;;;;19.63;14.60;;;16.60;93.50;;;;;;5071411;28;20032;-82
2021/07/11 04:32:04;;;;;;;18.05;14.15;;;16.70;94.60;;;;;;5080065;28;20032;-82
2021/07/11 04:34:31;;;;;;;13.60;9.70;;;16.70;94.00;;;;;;5056116;28;20495;-82
2021/07/11 04:36:58;;;;;;;18.48;14.25;;;16.80;93.80;;;;;;5055508;28;20119;-82
2021/07/11 04:39:24;;;;;;;14.75;12.93;;;16.70;93.70;;;;;;5064714;28;20066;-82
2021/07/11 04:41:50;;;;;;;17.45;14.50;;;16.70;94.40;;;;;;5070792;28;20028;-82
2021/07/11 04:44:16;;;;;;;15.23;11.63;;;16.60;94.50;;;;;;5066837;28;20035;-82
2021/07/11 04:46:43;;;;;;;12.98;10.68;;;16.60;94.00;;;;;;5070350;28;20024;-82
2021/07/11 04:49:09;;;;;;;18.83;15.15;;;16.60;93.80;;;;;;5087908;28;20028;-82
2021/07/11 04:51:34;;;;;;;24.77;18.67;;;16.60;93.60;;;;;;5070355;28;20031;-82
2021/07/11 04:54:00;;;;;;;23.88;18.70;;;16.70;94.90;;;;;;5071088;28;20062;-82
2021/07/11 04:56:25;;;;;;;23.50;18.25;;;16.60;94.30;;;;;;5072372;28;20055;-82
2021/07/11 04:58:51;;;;;;;16.83;11.50;;;16.60;94.50;;;;;;5069620;28;20085;-82
2021/07/11 05:01:16;;;;;;;28.08;20.95;;;16.70;93.70;;;;;;5070358;28;20472;-82
2021/07/11 05:03:42;;;;;;;27.15;21.05;;;16.70;93.90;;;;;;5054155;28;20081;-82
2021/07/11 05:06:07;;;;;;;33.15;23.85;;;16.70;93.80;;;;;;5087887;28;20119;-82
2021/07/11 05:08:33;;;;;;;23.92;18.05;;;16.70;93.00;;;;;;5055503;28;20043;-81
2021/07/11 05:10:59;;;;;;;28.60;18.98;;;16.70;94.70;;;;;;5070078;28;20503;-82
2021/07/11 05:13:24;;;;;;;21.00;15.68;;;16.80;93.30;;;;;;5070990;28;20032;-82
2021/07/11 05:15:50;;;;;;;18.67;14.55;;;16.80;93.20;;;;;;5071173;28;20027;-82
2021/07/11 05:18:16;;;;;;;24.35;16.90;;;16.90;94.60;;;;;;5070740;28;20101;-82
2021/07/11 05:20:41;;;;;;;21.33;17.10;;;17.00;94.00;;;;;;5087421;28;20081;-82
2021/07/11 05:23:07;;;;;;;26.40;17.60;;;17.00;94.20;;;;;;5073288;28;20077;-82
2021/07/11 05:25:33;;;;;;;17.05;13.75;;;17.00;94.60;;;;;;5072691;28;20047;-82
2021/07/11 05:28:02;;;;;;;23.13;17.52;;;17.00;94.20;;;;;;5089756;28;20479;-82
2021/07/11 05:30:27;;;;;;;28.40;21.30;;;17.10;94.40;;;;;;5051989;28;20488;-82
2021/07/11 05:32:53;;;;;;;24.98;18.83;;;17.10;94.20;;;;;;5071203;28;20028;-82
2021/07/11 05:35:18;;;;;;;25.90;19.23;;;17.30;94.40;;;;;;5052951;28;20036;-82
2021/07/11 05:37:44;;;;;;;36.03;25.42;;;17.20;94.40;;;;;;5069543;28;20084;-82
2021/07/11 05:40:11;;;;;;;40.58;27.90;;;17.20;94.50;;;;;;5069444;28;20029;-83
2021/07/11 05:42:36;;;;;;;24.00;17.95;;;17.20;94.50;;;;;;5069804;28;20040;-83
2021/07/11 05:45:03;;;;;;;34.17;24.67;;;17.30;94.10;;;;;;5067734;28;20055;-82
2021/07/11 05:47:28;;;;;;;25.55;19.02;;;17.30;94.20;;;;;;5048865;28;20036;-81
2021/07/11 05:49:54;;;;;;;30.23;22.33;;;17.30;94.20;;;;;;5069647;28;20081;-82
2021/07/11 05:52:20;;;;;;;21.50;17.13;;;17.40;94.60;;;;;;5085611;28;20384;-82
2021/07/11 05:54:45;;;;;;;33.33;22.15;;;17.40;94.10;;;;;;5054741;28;20441;-82
2021/07/11 05:57:11;;;;;;;19.35;15.32;;;17.40;94.40;;;;;;5087702;28;20183;-82
2021/07/11 05:59:36;;;;;;;30.95;22.77;;;17.50;93.80;;;;;;5052188;27;20028;-82
2021/07/11 06:02:02;;;;;;;24.90;17.60;;;17.60;94.30;;;;;;5075541;28;20024;-83
2021/07/11 06:04:28;;;;;;;31.65;23.40;;;17.60;94.10;;;;;;5065320;28;20435;-83
2021/07/11 06:06:53;;;;;;;22.00;17.80;;;17.70;94.20;;;;;;5069330;28;20036;-83
2021/07/11 06:09:19;;;;;;;23.38;16.45;;;17.70;93.70;;;;;;5067718;28;20038;-82
2021/07/11 06:11:44;;;;;;;30.23;21.90;;;17.80;93.50;;;;;;5068686;28;20023;-83
2021/07/11 06:14:10;;;;;;;23.42;18.50;;;17.80;93.70;;;;;;5069830;28;20028;-83
2021/07/11 06:16:36;;;;;;;32.53;23.17;;;17.90;93.60;;;;;;5052008;28;20047;-82
2021/07/11 06:19:02;;;;;;;27.25;20.48;;;17.90;93.80;;;;;;5068900;28;20115;-83
2021/07/11 06:21:28;;;;;;;29.77;21.52;;;18.00;93.50;;;;;;5067245;28;20040;-83
2021/07/11 06:23:53;;;;;;;30.80;21.25;;;18.00;93.00;;;;;;5070497;28;20039;-83
2021/07/11 06:26:19;;;;;;;37.28;25.15;;;18.10;92.80;;;;;;5069072;28;20043;-83
2021/07/11 06:28:45;;;;;;;25.60;18.27;;;18.20;93.50;;;;;;5069284;28;20032;-83
2021/07/11 06:31:10;;;;;;;42.63;29.48;;;18.10;92.70;;;;;;5068632;28;20041;-82
2021/07/11 06:33:36;;;;;;;27.45;20.70;;;18.30;93.40;;;;;;5085900;28;20050;-83
2021/07/11 06:36:01;;;;;;;39.45;26.65;;;18.40;93.10;;;;;;5069836;28;20424;-83
2021/07/11 06:38:27;;;;;;;37.15;24.00;;;18.40;93.60;;;;;;5068487;27;20123;-83
2021/07/11 06:40:52;;;;;;;32.08;21.45;;;18.40;93.80;;;;;;5070505;28;20028;-83
2021/07/11 06:43:18;;;;;;;35.42;24.63;;;18.50;93.10;;;;;;5068032;28;20955;-83
2021/07/11 06:45:43;;;;;;;35.80;25.67;;;18.60;93.10;;;;;;5067119;28;20139;-83
2021/07/11 06:48:09;;;;;;;32.67;22.90;;;18.80;92.90;;;;;;5085906;28;20040;-83
2021/07/11 06:50:36;;;;;;;38.22;26.58;;;18.90;92.70;;;;;;5066518;27;20039;-83
2021/07/11 06:53:02;;;;;;;35.40;24.15;;;19.00;92.60;;;;;;5083078;27;20047;-83
2021/07/11 06:55:28;;;;;;;36.38;25.98;;;19.20;92.80;;;;;;5062953;28;20463;-83
2021/07/11 06:57:53;;;;;;;42.35;28.75;;;19.20;92.80;;;;;;5084725;28;20039;-83
2021/07/11 07:00:19;;;;;;;43.33;29.02;;;19.30;93.00;;;;;;5068609;28;20027;-82
2021/07/11 07:02:44;;;;;;;44.40;28.50;;;19.40;92.60;;;;;;5048318;27;20492;-83
2021/07/11 07:05:10;;;;;;;39.03;27.15;;;19.50;93.10;;;;;;5067343;28;20040;-83
2021/07/11 07:07:36;;;;;;;38.08;27.42;;;19.50;92.80;;;;;;5067736;27;20082;-83
2021/07/11 07:10:04;;;;;;;36.40;25.80;;;19.70;93.00;;;;;;5067831;28;20100;-83
2021/07/11 07:12:29;;;;;;;41.80;29.92;;;19.80;93.20;;;;;;5051280;28;20047;-83
2021/07/11 07:14:55;;;;;;;36.17;25.35;;;20.10;93.60;;;;;;5086286;28;20050;-84
2021/07/11 07:17:21;;;;;;;51.75;34.00;;;20.00;91.70;;;;;;5086190;28;20357;-83
2021/07/11 07:19:46;;;;;;;41.58;29.98;;;19.90;93.30;;;;;;5066025;28;20432;-83
2021/07/11 07:22:12;;;;;;;42.03;29.58;;;20.10;93.20;;;;;;5069009;28;20031;-82
2021/07/11 07:24:37;;;;;;;37.22;25.95;;;20.30;93.40;;;;;;5082007;27;20036;-83
2021/07/11 07:27:03;;;;;;;39.72;28.65;;;20.30;92.10;;;;;;5051054;28;20056;-83
2021/07/11 07:29:29;;;;;;;44.65;30.90;;;20.50;92.60;;;;;;5043533;27;20082;-83
2021/07/11 07:31:54;;;;;;;43.88;29.70;;;20.70;93.40;;;;;;5087497;28;20393;-83
2021/07/11 07:34:20;;;;;;;42.03;30.73;;;20.70;92.30;;;;;;5052316;28;20020;-83
2021/07/11 07:36:45;;;;;;;47.50;33.45;;;20.80;93.40;;;;;;5066184;28;20103;-83
2021/07/11 07:39:11;;;;;;;44.53;32.83;;;21.00;93.20;;;;;;5087302;28;20024;-83
2021/07/11 07:41:37;;;;;;;43.55;31.27;;;21.00;93.30;;;;;;5067315;28;20035;-83
2021/07/11 07:44:04;;;;;;;39.42;27.88;;;21.10;93.00;;;;;;5068063;28;20031;-83
2021/07/11 07:46:29;;;;;;;29.80;23.45;;;21.00;92.80;;;;;;5066238;28;20554;-83
2021/07/11 07:48:55;;;;;;;28.10;23.23;;;21.10;92.10;;;;;;5068752;28;20115;-83
2021/07/11 07:51:20;;;;;;;30.10;22.23;;;20.80;91.90;;;;;;5082904;28;20021;-84
2021/07/11 07:53:46;;;;;;;26.58;21.35;;;20.80;91.80;;;;;;5067896;27;20271;-83
2021/07/11 07:56:11;;;;;;;24.48;20.35;;;21.00;92.60;;;;;;5086537;28;20052;-83
2021/07/11 07:58:37;;;;;;;28.20;21.50;;;21.30;92.20;;;;;;5066110;27;20036;-84
2021/07/11 08:01:02;;;;;;;21.67;18.20;;;21.30;92.40;;;;;;5071856;28;20103;-84
2021/07/11 08:03:28;;;;;;;27.92;21.25;;;21.50;93.30;;;;;;5068076;28;20032;-83
2021/07/11 08:05:54;;;;;;;23.02;19.80;;;21.50;91.80;;;;;;5082555;28;20032;-85
2021/07/11 08:08:19;;;;;;;27.10;20.73;;;21.60;92.50;;;;;;5067300;28;20774;-84
2021/07/11 08:10:45;;;;;;;22.10;19.00;;;21.90;91.60;;;;;;5049544;27;20036;-84
2021/07/11 08:13:10;;;;;;;23.65;18.90;;;21.80;91.70;;;;;;5086788;28;20081;-83
2021/07/11 08:15:36;;;;;;;23.20;16.85;;;21.90;92.00;;;;;;5069010;28;20071;-84
2021/07/11 08:18:01;;;;;;;21.65;17.70;;;22.10;91.90;;;;;;5070248;28;20028;-84
2021/07/11 08:20:27;;;;;;;26.17;19.00;;;21.70;92.60;;;;;;5072405;28;20123;-84
2021/07/11 08:22:53;;;;;;;26.65;19.27;;;22.20;91.30;;;;;;5071294;27;20058;-84
2021/07/11 08:25:18;;;;;;;23.75;20.13;;;22.30;91.90;;;;;;5068192;28;20063;-84
2021/07/11 08:27:44;;;;;;;23.85;19.45;;;22.10;91.20;;;;;;5072982;27;20028;-84
2021/07/11 08:30:11;;;;;;;24.50;18.27;;;22.40;91.10;;;;;;5050410;28;20119;-84
2021/07/11 08:32:37;;;;;;;23.80;18.67;;;22.40;90.40;;;;;;5085088;28;20058;-84
2021/07/11 08:35:03;;;;;;;25.58;19.48;;;22.70;92.20;;;;;;5072319;28;20093;-84
2021/07/11 08:37:29;;;;;;;29.13;19.83;;;23.20;90.50;;;;;;5071921;28;20040;-84
2021/07/11 08:39:55;;;;;;;29.10;20.73;;;23.70;92.40;;;;;;5072597;28;20388;-84
2021/07/11 08:42:20;;;;;;;27.83;22.05;;;24.00;92.10;;;;;;5071232;28;20024;-84
2021/07/11 08:44:46;;;;;;;28.73;21.50;;;24.10;91.60;;;;;;5069881;28;20063;-84
2021/07/11 08:47:11;;;;;;;38.58;28.67;;;24.10;91.40;;;;;;5089302;28;20394;-84
2021/07/11 08:49:37;;;;;;;32.67;24.90;;;24.10;91.40;;;;;;5069100;27;20416;-84
2021/07/11 08:52:03;;;;;;;31.27;22.58;;;24.20;91.60;;;;;;5072429;28;20016;-84
2021/07/11 08:54:29;;;;;;;33.42;24.35;;;24.20;91.60;;;;;;5056370;28;20032;-85
2021/07/11 08:57:01;;;;;;;33.05;22.92;;;24.30;90.80;;;;;;5075447;28;20073;-85
2021/07/11 08:59:27;;;;;;;35.90;22.13;;;24.20;91.10;;;;;;5075721;28;20031;-84
2021/07/11 09:01:54;;;;;;;41.28;25.80;;;24.10;90.80;;;;;;5073218;28;20028;-85
2021/07/11 09:04:19;;;;;;;43.13;26.58;;;24.00;90.50;;;;;;5087925;28;20094;-84
2021/07/11 09:06:52;;;;;;;37.13;24.35;;;23.90;90.80;;;;;;5055755;27;20492;-85
2021/07/11 09:09:37;;;;;;;39.20;23.52;;;23.80;90.50;;;;;;5090123;27;20036;-84
2021/07/11 09:12:09;;;;;;;37.22;25.13;;;23.60;90.20;;;;;;5050355;28;20028;-84
2021/07/11 09:14:43;;;;;;;38.38;24.42;;;23.70;89.40;;;;;;5055285;28;20115;-84
2021/07/11 09:17:09;;;;;;;37.65;25.08;;;23.80;90.80;;;;;;5059870;28;20047;-84
2021/07/11 09:19:38;;;;;;;39.33;25.10;;;23.60;90.10;;;;;;5053187;28;20043;-84
2021/07/11 09:22:10;;;;;;;35.28;22.95;;;23.70;90.00;;;;;;5071964;28;20028;-84
2021/07/11 09:24:37;;;;;;;39.83;26.17;;;23.80;90.80;;;;;;5082034;28;20029;-84
2021/07/11 09:27:10;;;;;;;38.95;25.38;;;24.00;90.60;;;;;;5073108;28;20557;-84
2021/07/11 09:29:36;;;;;;;45.95;26.88;;;24.00;91.00;;;;;;5058438;28;20514;-83
2021/07/11 09:32:02;;;;;;;36.92;24.83;;;24.40;90.50;;;;;;5072115;28;20028;-84
2021/07/11 09:34:28;;;;;;;34.22;23.30;;;24.80;90.50;;;;;;5073979;28;20173;-84
2021/07/11 09:37:08;;;;;;;32.78;23.60;;;25.00;90.20;;;;;;5075247;28;20118;-85
2021/07/11 09:39:33;;;;;;;33.30;23.02;;;25.10;90.10;;;;;;5067900;27;20080;-84
2021/07/11 09:42:02;;;;;;;30.48;20.73;;;25.30;89.70;;;;;;5088649;28;20078;-84
2021/07/11 09:44:43;;;;;;;30.90;21.85;;;25.30;88.00;;;;;;5075060;28;20016;-83
2021/07/11 09:47:16;;;;;;;31.83;21.15;;;25.20;86.30;;;;;;5069444;28;20024;-85
2021/07/11 09:49:42;;;;;;;30.38;21.17;;;25.10;85.70;;;;;;5070951;28;20055;-85
2021/07/11 09:52:07;;;;;;;32.72;20.60;;;25.30;86.10;;;;;;5071619;27;20496;-85
2021/07/11 09:54:33;;;;;;;28.55;20.00;;;26.10;90.00;;;;;;5070500;27;20480;-85
2021/07/11 09:57:06;;;;;;;29.05;21.92;;;26.80;87.30;;;;;;5068194;28;20033;-85
2021/07/11 09:59:31;;;;;;;30.38;22.35;;;27.00;84.80;;;;;;5055005;28;20047;-85
2021/07/11 10:01:57;;;;;;;33.10;23.65;;;27.20;85.30;;;;;;5076037;28;20487;-85
2021/07/11 10:04:22;;;;;;;28.20;16.63;;;27.20;84.40;;;;;;5072505;28;20028;-86
2021/07/11 10:06:49;;;;;;;26.50;19.20;;;27.10;83.90;;;;;;5075883;28;20461;-86
2021/07/11 10:09:15;;;;;;;29.17;20.42;;;27.00;83.50;;;;;;5072747;28;20035;-86
2021/07/11 10:11:41;;;;;;;24.73;16.48;;;26.80;83.50;;;;;;5053519;27;20115;-86
2021/07/11 10:14:06;;;;;;;23.27;16.70;;;27.00;82.70;;;;;;5078462;28;20124;-86
2021/07/11 10:16:34;;;;;;;23.38;16.65;;;27.30;82.50;;;;;;5082449;28;20033;-86
2021/07/11 10:19:00;;;;;;;22.98;16.52;;;27.80;82.70;;;;;;5067304;28;20390;-86
2021/07/11 10:21:29;;;;;;;22.67;17.27;;;28.10;82.90;;;;;;5069886;28;20472;-86
2021/07/11 10:23:54;;;;;;;30.33;20.77;;;28.70;80.50;;;;;;5075502;28;20488;-88
2021/07/11 10:26:20;;;;;;;27.63;21.38;;;28.90;79.10;;;;;;5081545;28;20042;-87
2021/07/11 10:28:47;;;;;;;28.02;21.13;;;28.70;78.70;;;;;;5073191;28;20055;-88
2021/07/11 10:31:21;;;;;;;28.88;23.92;;;28.70;78.40;;;;;;5058211;28;20402;-87
2021/07/11 10:33:47;;;;;;;36.38;26.70;;;28.60;77.40;;;;;;5069903;28;20403;-88
2021/07/11 10:36:13;;;;;;;26.90;22.80;;;28.60;76.90;;;;;;5058356;28;20031;-88
2021/07/11 10:38:44;;;;;;;29.27;23.20;;;28.50;76.80;;;;;;5071425;28;20028;-90
2021/07/11 10:41:16;;;;;;;26.83;22.92;;;28.70;76.10;;;;;;5074386;28;20542;-87
2021/07/11 10:43:43;;;;;;;28.02;23.55;;;29.00;76.50;;;;;;5070545;28;20166;-88
2021/07/11 10:46:09;;;;;;;22.65;19.00;;;29.10;76.00;;;;;;5089340;28;20036;-88
2021/07/11 10:48:34;;;;;;;21.25;17.35;;;29.40;74.70;;;;;;5070054;28;20523;-86
2021/07/11 10:51:00;;;;;;;30.45;25.50;;;29.60;74.30;;;;;;5069977;28;21789;-88
2021/07/11 10:53:32;;;;;;;20.85;17.73;;;29.70;73.60;;;;;;5054375;28;20032;-86
2021/07/11 10:55:58;;;;;;;21.67;18.90;;;29.70;73.70;;;;;;5069897;28;20035;-87
2021/07/11 10:58:23;;;;;;;22.40;19.25;;;29.80;73.20;;;;;;5068987;28;20119;-87
2021/07/11 11:00:49;;;;;;;24.25;20.42;;;30.00;72.90;;;;;;5070373;28;20484;-86
2021/07/11 11:03:19;;;;;;;27.02;23.25;;;30.10;72.40;;;;;;5071680;28;20032;-87
2021/07/11 11:05:45;;;;;;;23.85;21.02;;;30.20;72.20;;;;;;5054095;28;20089;-86
2021/07/11 11:08:12;;;;;;;19.15;17.20;;;30.40;70.10;;;;;;5088128;28;20036;-86
2021/07/11 11:10:38;;;;;;;28.65;24.20;;;30.40;70.70;;;;;;5070059;27;20486;-86
2021/07/11 11:13:11;;;;;;;17.95;15.82;;;30.60;69.60;;;;;;5081776;28;20028;-85
2021/07/11 11:15:43;;;;;;;21.75;19.55;;;30.40;70.50;;;;;;5069799;28;20426;-86
2021/07/11 11:18:24;;;;;;;19.98;16.88;;;30.40;69.20;;;;;;5067108;28;20547;-86
2021/07/11 11:21:01;;;;;;;25.25;20.20;;;30.50;68.30;;;;;;5077641;28;20036;-86
2021/07/11 11:23:32;;;;;;;19.23;17.25;;;30.50;68.40;;;;;;5068163;28;20542;-84
2021/07/11 11:25:57;;;;;;;18.52;16.45;;;30.60;68.50;;;;;;5077798;28;20047;-85
2021/07/11 11:28:31;;;;;;;26.83;20.85;;;31.00;67.70;;;;;;5067155;28;20559;-85
2021/07/11 11:31:25;;;;;;;26.15;19.65;;;30.90;67.90;;;;;;5067233;28;20119;-85
2021/07/11 11:33:53;;;;;;;15.65;14.05;;;31.30;66.40;;;;;;5066823;28;20040;-84
2021/07/11 11:36:32;;;;;;;17.67;15.82;;;31.00;67.30;;;;;;5084373;28;20032;-83
2021/07/11 11:39:01;;;;;;;15.82;14.10;;;31.20;67.30;;;;;;5086882;28;20078;-84
2021/07/11 11:41:27;;;;;;;14.82;13.32;;;31.60;66.60;;;;;;5050592;28;20040;-83
2021/07/11 11:44:04;;;;;;;15.02;13.20;;;31.70;65.20;;;;;;5085417;28;20028;-83
2021/07/11 11:46:30;;;;;;;14.05;12.55;;;31.60;64.80;;;;;;5043637;28;20052;-82
2021/07/11 11:48:57;;;;;;;14.20;12.65;;;31.30;66.00;;;;;;5066934;28;20099;-82
2021/07/11 11:51:23;;;;;;;14.93;13.35;;;31.40;65.80;;;;;;5067089;28;20413;-84
2021/07/11 11:53:48;;;;;;;14.32;12.93;;;31.60;64.70;;;;;;5064385;28;20043;-84
2021/07/11 11:56:14;;;;;;;12.82;11.55;;;31.80;64.50;;;;;;5066906;28;20032;-83
2021/07/11 11:58:39;;;;;;;14.63;12.27;;;31.80;65.40;;;;;;5084056;28;20036;-83
2021/07/11 12:01:11;;;;;;;12.63;11.32;;;31.80;64.50;;;;;;5067411;28;20032;-82
2021/07/11 12:03:37;;;;;;;14.68;11.02;;;31.90;64.40;;;;;;5069431;28;20032;-83
2021/07/11 12:06:13;;;;;;;13.82;12.38;;;32.00;63.40;;;;;;5087055;28;20038;-83
2021/07/11 12:08:41;;;;;;;15.75;14.15;;;32.30;63.40;;;;;;5084949;28;20036;-84
2021/07/11 12:11:06;;;;;;;21.92;17.70;;;32.90;62.70;;;;;;5070627;28;20024;-83
2021/07/11 12:13:32;;;;;;;19.75;15.80;;;33.20;60.60;;;;;;5089012;28;20086;-82
2021/07/11 12:16:07;;;;;;;13.50;12.18;;;33.20;60.50;;;;;;5069199;28;20144;-82
2021/07/11 12:18:41;;;;;;;18.07;15.53;;;33.20;60.80;;;;;;5092168;28;20024;-82
2021/07/11 12:21:07;;;;;;;14.93;10.43;;;33.20;61.40;;;;;;5091349;28;20262;-80
2021/07/11 12:23:32;;;;;;;16.02;14.40;;;33.40;60.60;;;;;;5074026;28;20024;-80
2021/07/11 12:25:59;;;;;;;15.35;13.73;;;33.50;58.70;;;;;;5057563;28;20423;-79
2021/07/11 12:28:25;;;;;;;13.98;12.57;;;33.70;58.90;;;;;;5070698;28;20028;-79
2021/07/11 12:30:51;;;;;;;11.32;10.23;;;33.80;58.90;;;;;;5091204;28;20568;-78